sensor_id;sensor_type;location;lat;lon;timestamp;P1;durP1;ratioP1;P2;durP2;ratioP2
35223;SDS011;21367;51.930;8.112;2022-10-16T00:04:59;14.23;;;4.57;;
35223;SDS011;21367;51.930;8.112;2022-10-16T00:10:06;12.20;;;4.28;;
35223;SDS011;21367;51.930;8.112;2022-10-16T00:15:10;17.77;;;5.07;;
35223;SDS011;21367;51.930;8.112;2022-10-16T00:20:13;10.63;;;4.43;;
35223;SDS011;21367;51.930;8.112;2022-10-16T00:25:20;22.08;;;5.03;;
35223;SDS011;21367;51.930;8.112;2022-10-16T00:30:24;12.25;;;4.70;;
35223;SDS011;21367;51.930;8.112;2022-10-16T00:35:28;19.23;;;4.93;;
35223;SDS011;21367;51.930;8.112;2022-10-16T00:40:34;12.75;;;4.35;;
35223;SDS011;21367;51.930;8.112;2022-10-16T00:45:38;17.58;;;4.60;;
35223;SDS011;21367;51.930;8.112;2022-10-16T00:50:42;10.18;;;4.13;;
35223;SDS011;21367;51.930;8.112;2022-10-16T00:55:48;18.42;;;4.82;;
35223;SDS011;21367;51.930;8.112;2022-10-16T01:00:52;15.68;;;4.97;;
35223;SDS011;21367;51.930;8.112;2022-10-16T01:06:08;15.95;;;5.30;;
35223;SDS011;21367;51.930;8.112;2022-10-16T01:11:27;13.10;;;4.25;;
35223;SDS011;21367;51.930;8.112;2022-10-16T01:16:37;14.13;;;5.20;;
35223;SDS011;21367;51.930;8.112;2022-10-16T01:21:46;10.32;;;4.80;;
35223;SDS011;21367;51.930;8.112;2022-10-16T01:27:12;18.63;;;4.40;;
35223;SDS011;21367;51.930;8.112;2022-10-16T01:32:19;13.48;;;5.28;;
35223;SDS011;21367;51.930;8.112;2022-10-16T01:37:32;17.33;;;5.82;;
35223;SDS011;21367;51.930;8.112;2022-10-16T01:42:44;16.23;;;4.90;;
35223;SDS011;21367;51.930;8.112;2022-10-16T01:47:51;12.65;;;5.07;;
35223;SDS011;21367;51.930;8.112;2022-10-16T01:52:56;13.40;;;5.10;;
35223;SDS011;21367;51.930;8.112;2022-10-16T01:58:04;15.65;;;5.10;;
35223;SDS011;21367;51.930;8.112;2022-10-16T02:03:12;12.40;;;4.47;;
35223;SDS011;21367;51.930;8.112;2022-10-16T02:08:19;8.80;;;4.47;;
35223;SDS011;21367;51.930;8.112;2022-10-16T02:13:27;15.48;;;4.63;;
35223;SDS011;21367;51.930;8.112;2022-10-16T02:18:36;12.32;;;4.45;;
35223;SDS011;21367;51.930;8.112;2022-10-16T02:23:42;18.17;;;4.68;;
35223;SDS011;21367;51.930;8.112;2022-10-16T02:28:54;12.65;;;4.65;;
35223;SDS011;21367;51.930;8.112;2022-10-16T02:34:05;11.50;;;4.40;;
35223;SDS011;21367;51.930;8.112;2022-10-16T02:39:12;23.65;;;9.50;;
35223;SDS011;21367;51.930;8.112;2022-10-16T02:44:20;22.02;;;8.23;;
35223;SDS011;21367;51.930;8.112;2022-10-16T02:54:27;20.42;;;9.98;;
35223;SDS011;21367;51.930;8.112;2022-10-16T02:59:33;28.27;;;11.48;;
35223;SDS011;21367;51.930;8.112;2022-10-16T03:04:37;26.88;;;11.27;;
35223;SDS011;21367;51.930;8.112;2022-10-16T03:09:41;21.83;;;9.38;;
35223;SDS011;21367;51.930;8.112;2022-10-16T03:14:47;23.02;;;8.52;;
35223;SDS011;21367;51.930;8.112;2022-10-16T03:24:55;18.83;;;6.60;;
35223;SDS011;21367;51.930;8.112;2022-10-16T03:30:01;12.30;;;6.80;;
35223;SDS011;21367;51.930;8.112;2022-10-16T03:35:06;16.30;;;6.78;;
35223;SDS011;21367;51.930;8.112;2022-10-16T03:40:10;24.17;;;8.52;;
35223;SDS011;21367;51.930;8.112;2022-10-16T03:45:17;12.15;;;5.93;;
35223;SDS011;21367;51.930;8.112;2022-10-16T03:55:24;8.18;;;3.00;;
35223;SDS011;21367;51.930;8.112;2022-10-16T04:00:30;10.88;;;3.35;;
35223;SDS011;21367;51.930;8.112;2022-10-16T04:05:34;8.88;;;3.35;;
35223;SDS011;21367;51.930;8.112;2022-10-16T04:10:38;7.43;;;2.83;;
35223;SDS011;21367;51.930;8.112;2022-10-16T04:15:44;6.68;;;2.95;;
35223;SDS011;21367;51.930;8.112;2022-10-16T04:20:49;8.93;;;3.30;;
35223;SDS011;21367;51.930;8.112;2022-10-16T04:25:53;14.23;;;3.28;;
35223;SDS011;21367;51.930;8.112;2022-10-16T04:30:59;6.88;;;3.50;;
35223;SDS011;21367;51.930;8.112;2022-10-16T04:36:03;7.18;;;3.55;;
35223;SDS011;21367;51.930;8.112;2022-10-16T04:41:07;6.18;;;2.97;;
35223;SDS011;21367;51.930;8.112;2022-10-16T04:46:14;11.07;;;3.45;;
35223;SDS011;21367;51.930;8.112;2022-10-16T04:51:18;9.43;;;3.67;;
35223;SDS011;21367;51.930;8.112;2022-10-16T04:56:21;7.65;;;3.15;;
35223;SDS011;21367;51.930;8.112;2022-10-16T05:01:28;7.45;;;2.40;;
35223;SDS011;21367;51.930;8.112;2022-10-16T05:06:31;11.88;;;3.08;;
35223;SDS011;21367;51.930;8.112;2022-10-16T05:11:35;10.40;;;3.13;;
35223;SDS011;21367;51.930;8.112;2022-10-16T05:16:41;6.22;;;2.90;;
35223;SDS011;21367;51.930;8.112;2022-10-16T05:21:45;6.00;;;2.50;;
35223;SDS011;21367;51.930;8.112;2022-10-16T05:26:49;9.07;;;2.83;;
35223;SDS011;21367;51.930;8.112;2022-10-16T05:31:56;5.85;;;1.95;;
35223;SDS011;21367;51.930;8.112;2022-10-16T05:36:59;2.60;;;1.85;;
35223;SDS011;21367;51.930;8.112;2022-10-16T05:42:03;8.07;;;2.30;;
35223;SDS011;21367;51.930;8.112;2022-10-16T05:47:09;9.20;;;2.67;;
35223;SDS011;21367;51.930;8.112;2022-10-16T05:52:15;7.72;;;2.35;;
35223;SDS011;21367;51.930;8.112;2022-10-16T05:57:18;9.05;;;2.05;;
35223;SDS011;21367;51.930;8.112;2022-10-16T06:02:25;5.72;;;2.22;;
35223;SDS011;21367;51.930;8.112;2022-10-16T06:12:32;5.55;;;2.05;;
35223;SDS011;21367;51.930;8.112;2022-10-16T06:17:38;8.55;;;1.60;;
35223;SDS011;21367;51.930;8.112;2022-10-16T06:22:42;5.18;;;1.65;;
35223;SDS011;21367;51.930;8.112;2022-10-16T06:27:46;5.97;;;1.40;;
35223;SDS011;21367;51.930;8.112;2022-10-16T06:32:53;4.20;;;1.20;;
35223;SDS011;21367;51.930;8.112;2022-10-16T06:37:57;6.38;;;1.67;;
35223;SDS011;21367;51.930;8.112;2022-10-16T06:43:00;2.40;;;1.25;;
35223;SDS011;21367;51.930;8.112;2022-10-16T06:48:06;1.52;;;0.98;;
35223;SDS011;21367;51.930;8.112;2022-10-16T06:58:14;3.22;;;1.25;;
35223;SDS011;21367;51.930;8.112;2022-10-16T07:03:20;1.55;;;1.00;;
35223;SDS011;21367;51.930;8.112;2022-10-16T07:13:27;4.57;;;1.65;;
35223;SDS011;21367;51.930;8.112;2022-10-16T07:18:34;3.50;;;1.40;;
35223;SDS011;21367;51.930;8.112;2022-10-16T07:23:39;6.65;;;1.33;;
35223;SDS011;21367;51.930;8.112;2022-10-16T07:28:43;4.43;;;1.33;;
35223;SDS011;21367;51.930;8.112;2022-10-16T07:33:50;4.43;;;1.00;;
35223;SDS011;21367;51.930;8.112;2022-10-16T07:38:54;3.92;;;0.95;;
35223;SDS011;21367;51.930;8.112;2022-10-16T07:43:58;3.85;;;1.17;;
35223;SDS011;21367;51.930;8.112;2022-10-16T07:49:05;4.13;;;1.27;;
35223;SDS011;21367;51.930;8.112;2022-10-16T07:59:12;4.88;;;1.20;;
35223;SDS011;21367;51.930;8.112;2022-10-16T08:04:19;4.85;;;1.15;;
35223;SDS011;21367;51.930;8.112;2022-10-16T08:09:22;4.63;;;1.33;;
35223;SDS011;21367;51.930;8.112;2022-10-16T08:14:26;6.78;;;1.63;;
35223;SDS011;21367;51.930;8.112;2022-10-16T08:19:33;4.88;;;2.08;;
35223;SDS011;21367;51.930;8.112;2022-10-16T08:24:37;10.05;;;1.67;;
35223;SDS011;21367;51.930;8.112;2022-10-16T08:29:40;2.75;;;1.20;;
35223;SDS011;21367;51.930;8.112;2022-10-16T08:34:47;4.05;;;1.50;;
35223;SDS011;21367;51.930;8.112;2022-10-16T08:39:50;7.75;;;1.55;;
35223;SDS011;21367;51.930;8.112;2022-10-16T08:50:25;8.18;;;1.88;;
35223;SDS011;21367;51.930;8.112;2022-10-16T08:55:32;8.25;;;1.35;;
35223;SDS011;21367;51.930;8.112;2022-10-16T09:00:40;6.70;;;1.70;;
35223;SDS011;21367;51.930;8.112;2022-10-16T09:11:22;7.28;;;1.83;;
35223;SDS011;21367;51.930;8.112;2022-10-16T09:16:41;6.30;;;1.48;;
35223;SDS011;21367;51.930;8.112;2022-10-16T09:21:54;5.22;;;1.60;;
35223;SDS011;21367;51.930;8.112;2022-10-16T09:26:59;5.20;;;1.50;;
35223;SDS011;21367;51.930;8.112;2022-10-16T09:32:08;5.00;;;1.30;;
35223;SDS011;21367;51.930;8.112;2022-10-16T09:37:19;5.47;;;1.38;;
35223;SDS011;21367;51.930;8.112;2022-10-16T09:42:26;4.30;;;1.30;;
35223;SDS011;21367;51.930;8.112;2022-10-16T09:47:43;5.38;;;1.50;;
35223;SDS011;21367;51.930;8.112;2022-10-16T09:52:50;6.20;;;1.60;;
35223;SDS011;21367;51.930;8.112;2022-10-16T09:57:54;7.72;;;1.60;;
35223;SDS011;21367;51.930;8.112;2022-10-16T10:02:58;5.68;;;1.20;;
35223;SDS011;21367;51.930;8.112;2022-10-16T10:08:05;6.90;;;1.10;;
35223;SDS011;21367;51.930;8.112;2022-10-16T10:13:16;12.65;;;1.00;;
35223;SDS011;21367;51.930;8.112;2022-10-16T10:18:22;8.02;;;1.27;;
35223;SDS011;21367;51.930;8.112;2022-10-16T10:23:29;4.28;;;0.90;;
35223;SDS011;21367;51.930;8.112;2022-10-16T10:28:45;3.60;;;1.05;;
35223;SDS011;21367;51.930;8.112;2022-10-16T10:33:58;8.13;;;0.82;;
35223;SDS011;21367;51.930;8.112;2022-10-16T10:39:11;5.10;;;1.02;;
35223;SDS011;21367;51.930;8.112;2022-10-16T10:44:20;4.20;;;0.98;;
35223;SDS011;21367;51.930;8.112;2022-10-16T10:49:39;6.47;;;0.85;;
35223;SDS011;21367;51.930;8.112;2022-10-16T10:54:55;5.53;;;0.65;;
35223;SDS011;21367;51.930;8.112;2022-10-16T11:00:14;4.47;;;1.10;;
35223;SDS011;21367;51.930;8.112;2022-10-16T11:05:37;4.40;;;0.93;;
35223;SDS011;21367;51.930;8.112;2022-10-16T11:10:49;7.63;;;1.67;;
35223;SDS011;21367;51.930;8.112;2022-10-16T11:15:58;4.07;;;1.05;;
35223;SDS011;21367;51.930;8.112;2022-10-16T11:21:05;10.13;;;1.80;;
35223;SDS011;21367;51.930;8.112;2022-10-16T11:26:15;8.13;;;1.20;;
35223;SDS011;21367;51.930;8.112;2022-10-16T11:31:24;5.05;;;0.90;;
35223;SDS011;21367;51.930;8.112;2022-10-16T11:36:33;6.70;;;1.25;;
35223;SDS011;21367;51.930;8.112;2022-10-16T11:41:45;8.63;;;1.05;;
35223;SDS011;21367;51.930;8.112;2022-10-16T11:46:53;4.63;;;1.40;;
35223;SDS011;21367;51.930;8.112;2022-10-16T11:52:06;5.45;;;1.00;;
35223;SDS011;21367;51.930;8.112;2022-10-16T11:57:19;6.05;;;1.15;;
35223;SDS011;21367;51.930;8.112;2022-10-16T12:02:28;8.45;;;1.20;;
35223;SDS011;21367;51.930;8.112;2022-10-16T12:07:41;8.35;;;1.48;;
35223;SDS011;21367;51.930;8.112;2022-10-16T12:12:54;6.70;;;1.33;;
35223;SDS011;21367;51.930;8.112;2022-10-16T12:17:58;3.17;;;1.10;;
35223;SDS011;21367;51.930;8.112;2022-10-16T12:23:02;8.00;;;1.67;;
35223;SDS011;21367;51.930;8.112;2022-10-16T12:28:19;5.95;;;1.20;;
35223;SDS011;21367;51.930;8.112;2022-10-16T12:33:25;3.92;;;1.45;;
35223;SDS011;21367;51.930;8.112;2022-10-16T12:38:31;3.33;;;1.17;;
35223;SDS011;21367;51.930;8.112;2022-10-16T12:43:43;10.13;;;1.40;;
35223;SDS011;21367;51.930;8.112;2022-10-16T12:48:50;5.38;;;1.38;;
35223;SDS011;21367;51.930;8.112;2022-10-16T12:54:00;3.72;;;1.00;;
35223;SDS011;21367;51.930;8.112;2022-10-16T12:59:09;8.02;;;1.40;;
35223;SDS011;21367;51.930;8.112;2022-10-16T13:04:22;2.63;;;1.00;;
35223;SDS011;21367;51.930;8.112;2022-10-16T13:09:46;6.97;;;1.17;;
35223;SDS011;21367;51.930;8.112;2022-10-16T13:15:12;4.07;;;1.20;;
35223;SDS011;21367;51.930;8.112;2022-10-16T13:20:26;10.32;;;1.35;;
35223;SDS011;21367;51.930;8.112;2022-10-16T13:25:38;4.32;;;1.35;;
35223;SDS011;21367;51.930;8.112;2022-10-16T13:30:53;3.70;;;0.93;;
35223;SDS011;21367;51.930;8.112;2022-10-16T13:36:00;4.07;;;1.10;;
35223;SDS011;21367;51.930;8.112;2022-10-16T13:41:05;2.38;;;1.00;;
35223;SDS011;21367;51.930;8.112;2022-10-16T13:46:19;3.67;;;1.30;;
35223;SDS011;21367;51.930;8.112;2022-10-16T13:51:24;3.28;;;1.23;;
35223;SDS011;21367;51.930;8.112;2022-10-16T13:56:30;6.25;;;1.10;;
35223;SDS011;21367;51.930;8.112;2022-10-16T14:01:39;6.55;;;1.33;;
35223;SDS011;21367;51.930;8.112;2022-10-16T14:06:45;3.92;;;0.80;;
35223;SDS011;21367;51.930;8.112;2022-10-16T14:11:53;7.90;;;1.33;;
35223;SDS011;21367;51.930;8.112;2022-10-16T14:17:04;6.70;;;1.40;;
35223;SDS011;21367;51.930;8.112;2022-10-16T14:22:18;5.43;;;1.17;;
35223;SDS011;21367;51.930;8.112;2022-10-16T14:27:33;5.60;;;1.00;;
35223;SDS011;21367;51.930;8.112;2022-10-16T14:32:40;3.63;;;1.20;;
35223;SDS011;21367;51.930;8.112;2022-10-16T14:37:45;6.30;;;1.17;;
35223;SDS011;21367;51.930;8.112;2022-10-16T14:42:48;10.70;;;1.65;;
35223;SDS011;21367;51.930;8.112;2022-10-16T14:47:56;9.40;;;1.50;;
35223;SDS011;21367;51.930;8.112;2022-10-16T14:53:01;5.60;;;1.00;;
35223;SDS011;21367;51.930;8.112;2022-10-16T14:58:13;10.93;;;1.60;;
35223;SDS011;21367;51.930;8.112;2022-10-16T15:03:23;2.88;;;1.13;;
35223;SDS011;21367;51.930;8.112;2022-10-16T15:08:27;5.82;;;0.85;;
35223;SDS011;21367;51.930;8.112;2022-10-16T15:13:30;9.13;;;1.00;;
35223;SDS011;21367;51.930;8.112;2022-10-16T15:18:38;4.70;;;1.20;;
35223;SDS011;21367;51.930;8.112;2022-10-16T15:23:41;4.07;;;1.00;;
35223;SDS011;21367;51.930;8.112;2022-10-16T15:28:45;3.92;;;0.98;;
35223;SDS011;21367;51.930;8.112;2022-10-16T15:33:52;5.95;;;1.05;;
35223;SDS011;21367;51.930;8.112;2022-10-16T15:39:02;7.43;;;1.42;;
35223;SDS011;21367;51.930;8.112;2022-10-16T15:44:06;6.15;;;1.10;;
35223;SDS011;21367;51.930;8.112;2022-10-16T15:49:13;5.90;;;1.30;;
35223;SDS011;21367;51.930;8.112;2022-10-16T15:54:18;8.00;;;1.52;;
35223;SDS011;21367;51.930;8.112;2022-10-16T15:59:23;10.38;;;1.30;;
35223;SDS011;21367;51.930;8.112;2022-10-16T16:04:31;5.32;;;1.30;;
35223;SDS011;21367;51.930;8.112;2022-10-16T16:09:35;4.68;;;1.38;;
35223;SDS011;21367;51.930;8.112;2022-10-16T16:14:38;5.30;;;1.60;;
35223;SDS011;21367;51.930;8.112;2022-10-16T16:19:45;7.35;;;1.70;;
35223;SDS011;21367;51.930;8.112;2022-10-16T16:24:49;4.25;;;1.77;;
35223;SDS011;21367;51.930;8.112;2022-10-16T16:29:53;11.35;;;1.98;;
35223;SDS011;21367;51.930;8.112;2022-10-16T16:34:59;12.43;;;2.30;;
35223;SDS011;21367;51.930;8.112;2022-10-16T16:45:07;5.05;;;2.70;;
35223;SDS011;21367;51.930;8.112;2022-10-16T16:50:14;6.60;;;2.67;;
35223;SDS011;21367;51.930;8.112;2022-10-16T16:55:18;10.75;;;3.00;;
35223;SDS011;21367;51.930;8.112;2022-10-16T17:00:21;10.32;;;2.90;;
35223;SDS011;21367;51.930;8.112;2022-10-16T17:05:29;7.57;;;3.55;;
35223;SDS011;21367;51.930;8.112;2022-10-16T17:15:36;8.10;;;2.97;;
35223;SDS011;21367;51.930;8.112;2022-10-16T17:20:42;7.75;;;3.60;;
35223;SDS011;21367;51.930;8.112;2022-10-16T17:25:46;12.13;;;3.53;;
35223;SDS011;21367;51.930;8.112;2022-10-16T17:30:53;17.30;;;5.20;;
35223;SDS011;21367;51.930;8.112;2022-10-16T17:36:00;26.00;;;8.13;;
35223;SDS011;21367;51.930;8.112;2022-10-16T17:41:10;22.77;;;8.82;;
35223;SDS011;21367;51.930;8.112;2022-10-16T17:46:15;18.65;;;7.85;;
35223;SDS011;21367;51.930;8.112;2022-10-16T17:51:24;22.20;;;8.30;;
35223;SDS011;21367;51.930;8.112;2022-10-16T17:56:29;29.08;;;9.63;;
35223;SDS011;21367;51.930;8.112;2022-10-16T18:01:34;23.02;;;7.53;;
35223;SDS011;21367;51.930;8.112;2022-10-16T18:06:43;18.33;;;6.15;;
35223;SDS011;21367;51.930;8.112;2022-10-16T18:11:48;15.80;;;5.45;;
35223;SDS011;21367;51.930;8.112;2022-10-16T18:16:59;14.55;;;4.65;;
35223;SDS011;21367;51.930;8.112;2022-10-16T18:22:06;6.70;;;3.70;;
35223;SDS011;21367;51.930;8.112;2022-10-16T18:27:09;9.73;;;3.50;;
35223;SDS011;21367;51.930;8.112;2022-10-16T18:32:13;32.50;;;7.38;;
35223;SDS011;21367;51.930;8.112;2022-10-16T18:37:20;14.10;;;5.53;;
35223;SDS011;21367;51.930;8.112;2022-10-16T18:42:24;8.18;;;4.82;;
35223;SDS011;21367;51.930;8.112;2022-10-16T18:47:27;10.80;;;4.80;;
35223;SDS011;21367;51.930;8.112;2022-10-16T18:52:34;15.98;;;4.80;;
35223;SDS011;21367;51.930;8.112;2022-10-16T18:57:38;11.23;;;5.05;;
35223;SDS011;21367;51.930;8.112;2022-10-16T19:02:41;12.85;;;5.50;;
35223;SDS011;21367;51.930;8.112;2022-10-16T19:07:48;14.95;;;6.53;;
35223;SDS011;21367;51.930;8.112;2022-10-16T19:12:52;13.90;;;5.20;;
35223;SDS011;21367;51.930;8.112;2022-10-16T19:17:55;10.48;;;5.28;;
35223;SDS011;21367;51.930;8.112;2022-10-16T19:23:02;11.60;;;6.28;;
35223;SDS011;21367;51.930;8.112;2022-10-16T19:28:06;17.13;;;5.20;;
35223;SDS011;21367;51.930;8.112;2022-10-16T19:33:10;10.82;;;4.75;;
35223;SDS011;21367;51.930;8.112;2022-10-16T19:38:18;6.70;;;3.80;;
35223;SDS011;21367;51.930;8.112;2022-10-16T19:43:22;8.27;;;3.67;;
35223;SDS011;21367;51.930;8.112;2022-10-16T19:48:26;11.68;;;4.13;;
35223;SDS011;21367;51.930;8.112;2022-10-16T19:53:32;20.83;;;4.32;;
35223;SDS011;21367;51.930;8.112;2022-10-16T20:03:39;7.93;;;4.18;;
35223;SDS011;21367;51.930;8.112;2022-10-16T20:08:47;19.48;;;7.95;;
35223;SDS011;21367;51.930;8.112;2022-10-16T20:13:52;18.23;;;6.13;;
35223;SDS011;21367;51.930;8.112;2022-10-16T20:18:56;16.10;;;5.20;;
35223;SDS011;21367;51.930;8.112;2022-10-16T20:24:03;15.32;;;4.40;;
35223;SDS011;21367;51.930;8.112;2022-10-16T20:29:07;8.30;;;4.10;;
35223;SDS011;21367;51.930;8.112;2022-10-16T20:34:11;12.77;;;4.50;;
35223;SDS011;21367;51.930;8.112;2022-10-16T20:39:18;10.73;;;4.75;;
35223;SDS011;21367;51.930;8.112;2022-10-16T20:49:25;10.90;;;5.55;;
35223;SDS011;21367;51.930;8.112;2022-10-16T20:54:32;13.15;;;6.63;;
35223;SDS011;21367;51.930;8.112;2022-10-16T20:59:36;15.50;;;6.68;;
35223;SDS011;21367;51.930;8.112;2022-10-16T21:04:39;19.58;;;6.18;;
35223;SDS011;21367;51.930;8.112;2022-10-16T21:09:46;9.15;;;5.25;;
35223;SDS011;21367;51.930;8.112;2022-10-16T21:19:53;17.52;;;5.65;;
35223;SDS011;21367;51.930;8.112;2022-10-16T21:25:00;12.27;;;6.78;;
35223;SDS011;21367;51.930;8.112;2022-10-16T21:35:08;17.85;;;5.70;;
35223;SDS011;21367;51.930;8.112;2022-10-16T21:40:14;13.77;;;5.88;;
35223;SDS011;21367;51.930;8.112;2022-10-16T21:45:18;13.68;;;6.38;;
35223;SDS011;21367;51.930;8.112;2022-10-16T21:50:22;12.15;;;5.90;;
35223;SDS011;21367;51.930;8.112;2022-10-16T21:55:28;19.88;;;6.05;;
35223;SDS011;21367;51.930;8.112;2022-10-16T22:05:35;12.75;;;5.65;;
35223;SDS011;21367;51.930;8.112;2022-10-16T22:10:41;14.38;;;5.75;;
35223;SDS011;21367;51.930;8.112;2022-10-16T22:15:49;12.05;;;5.50;;
35223;SDS011;21367;51.930;8.112;2022-10-16T22:20:53;10.57;;;5.25;;
35223;SDS011;21367;51.930;8.112;2022-10-16T22:26:00;12.45;;;4.90;;
35223;SDS011;21367;51.930;8.112;2022-10-16T22:31:07;14.25;;;5.35;;
35223;SDS011;21367;51.930;8.112;2022-10-16T22:36:12;10.75;;;5.03;;
35223;SDS011;21367;51.930;8.112;2022-10-16T22:41:20;14.00;;;5.37;;
35223;SDS011;21367;51.930;8.112;2022-10-16T22:46:24;15.93;;;5.47;;
35223;SDS011;21367;51.930;8.112;2022-10-16T22:51:30;9.98;;;4.97;;
35223;SDS011;21367;51.930;8.112;2022-10-16T22:56:36;14.48;;;4.88;;
35223;SDS011;21367;51.930;8.112;2022-10-16T23:06:44;17.10;;;4.90;;
35223;SDS011;21367;51.930;8.112;2022-10-16T23:11:50;8.23;;;5.20;;
35223;SDS011;21367;51.930;8.112;2022-10-16T23:16:54;7.97;;;4.80;;
35223;SDS011;21367;51.930;8.112;2022-10-16T23:21:58;11.43;;;5.32;;
35223;SDS011;21367;51.930;8.112;2022-10-16T23:27:04;14.57;;;5.60;;
35223;SDS011;21367;51.930;8.112;2022-10-16T23:37:11;17.88;;;5.20;;
35223;SDS011;21367;51.930;8.112;2022-10-16T23:42:17;10.20;;;5.07;;
35223;SDS011;21367;51.930;8.112;2022-10-16T23:47:21;16.60;;;5.07;;
35223;SDS011;21367;51.930;8.112;2022-10-16T23:52:25;11.73;;;4.32;;
35223;SDS011;21367;51.930;8.112;2022-10-16T23:57:31;10.18;;;4.45;;
